Nottingham, United Kingdom

12:09 PM GMT on January 28, 2015 (GMT +0000)
Gallows | Change Station
CLOSE
Current Station
Personal Weather Station
Location: Ilkeston, ENGLAND
Elevation: 184 ft
Nearby Weather Stations

Elev 184 ft 52.96 °N, 1.30 °W | Updated 7 seconds ago

Scattered Clouds
Scattered Clouds
40.8 °F
Feels Like 34 °F
N
11.0
Wind Variable Wind from West
Gusts 16.0 mph

Today
High -- | Low -- °F
--% Chance of Precip.
Yesterday
High -- | Low -- °F
Precip. -- in
7:55 AM 4:41 PM
Waxing Gibbous, 64% visible
Pressure 29.47 in
Visibility 6.2 miles
Clouds Few 1100 ft
Scattered Clouds 4500 ft
Windchill 34 °F
Dew Point 34 °F
Humidity 77%
Rainfall 0.07 in
Snow Depth Not available.
UV 1.0 out of 12
Pollen Not available.
Air Quality Not available.
Flu Activity Not available.
METAR EGNX 281150Z 27018KT 9999 FEW011 SCT045 04/02 Q0998 RESHRA

More Conditions Fewer Conditions

Pressure 29.47 in
Visibility 6.2 miles
Clouds Few 1100 ft
Scattered Clouds 4500 ft
Windchill 34 °F
Dew Point 34 °F
Humidity 77%
Rainfall 0.07 in
Snow Depth Not available.
UV 1.0 out of 12
Pollen Not available.
Air Quality Not available.
Flu Activity Not available.
METAR EGNX 281150Z 27018KT 9999 FEW011 SCT045 04/02 Q0998 RESHRA

More Conditions Fewer Conditions

10-Day Weather Forecast

Almanac

Astronomy

Jan. 28, 2015 Rise Set
Actual Time
Civil Twilight
Nautical Twilight
Astronomical Twilight
Moon
Length of Visible Light
Length of Day
Tomorrow will be .
, % of the Moon is Illuminated

Today's Extremes

Country Highs Country Lows

Community

WunderPhotos

Upload Photos

1,791,127 photos uploaded!

WunderBlogs® & News

Nearby

Air Quality

  Air Quality AQ Index Pollutant
Not available.

Snow Depth

Station Depth Elevation

Earthquake Activity

City Distance Mag. Time & Date
Minimum magnitude displayed is 2.5.

Coastal Water Temperatures

Place Temperature

Nearby Weather Stations